KHUM/HUM METAR and TAF weather

Enter ICAO airport designator
Station Type Date Time Source
KHUM METAR 2022/09/26 10:15 UTC NOAA

KHUM 261015Z AUTO 00000KT 7SM CLR 24/23 A2991 RMK AO2 T02360230


Station Type Date Time Source
KHUM Decoded METAR 2022/09/26 10:15 UTC NOAA

Houma-Terrebonne, LA, United States (KHUM) 29-34N 090-40W
Sep 26, 2022 - 06:15 AM EDT / 2022.09.26 1015 UTC
Wind: Calm:0
Visibility: 7 mile(s):0
Sky conditions: clear
Temperature: 74.5 F (23.6 C)
Dew Point: 73.4 F (23.0 C)
Relative Humidity: 96%
Pressure (altimeter): 29.91 in. Hg (1012 hPa)
ob: KHUM 261015Z AUTO 00000KT 7SM CLR 24/23 A2991 RMK AO2 T02360230
cycle: 10

Station Type Date Time Source
KHUM TAF 2022/09/26 06:22 UTC NOAA

TAF KHUM 260520Z 2606/2706 35005KT P6SM SCT250
TEMPO 2611/2612 5SM BR

Example: see airport list